Terminal Aerodrome Forecast
Issued by NWS Omaha/Valley, NE

Home | Current Version | Previous Version | Text Only | Print | Product List | Glossary On
Versions: 1 2 3 4 5 6 7 8 9 10 11 12 13 14 15 16 17 18 19 20 21 22 23 24 25 26 27 28 29 30 31 32 33 34 35 36
000
FTUS43 KOAX 030520
TAFOFK
TAF
KOFK 030520Z 0306/0406 15012KT P6SM BKN150 WS020/20040KT
      TEMPO 0307/0309 VRB20G33KT 3SM TSRA BR OVC025CB
     FM030900 16009KT P6SM -SHRA OVC015
      TEMPO 0311/0315 5SM BR OVC007
     FM031600 15010KT P6SM BKN040=

USA.gov is the U.S. government's official web portal to all federal, state and local government web resources and services.